BCS690 EGKK-EGAA
Flight info
| Callsign | BCS690 |
|---|---|
| Flight time | 1h 1m |
| Altitude | 32000 |
| Route | LAM L10 BPK UN601 LESTA UP6 RODOL UM65 TENSO L603 BELOX DCT REMSI DCT UVPOK M147 ROBOP M146 IPSET P6 BELZU |
| Aircraft | B77L/H-SDE1E2E3FGHIJ2J3J4J5M1RWXY/LB1D1 |
Departure
| Time | 2026-04-15 15:02 |
|---|---|
| Airport | London Gatwick Airport (EGKK) |
Arrival
| Time | 2026-04-15 16:04 |
|---|---|
| Airport | Belfast International Airport (EGAA) |
| Time | Latitude | Longitude | Altitude | Speed | Heading |
|---|---|---|---|---|---|
| 2026-04-15 14:17 | 51.15708 | -0.18399 | 209 ft | 0 kts | 347° |
| 2026-04-15 14:52 | 51.15699 | -0.18396 | 215 ft | 4 kts | 347° |
| 2026-04-15 14:53 | 51.15673 | -0.18387 | 223 ft | 3 kts | 347° |
| 2026-04-15 14:53 | 51.15651 | -0.18383 | 216 ft | 4 kts | 22° |
| 2026-04-15 14:53 | 51.15640 | -0.18395 | 222 ft | 4 kts | 71° |
| 2026-04-15 14:53 | 51.15635 | -0.18432 | 214 ft | 1 kts | 77° |
| 2026-04-15 14:54 | 51.15635 | -0.18433 | 214 ft | 1 kts | 77° |
| 2026-04-15 14:56 | 51.15640 | -0.18399 | 214 ft | 10 kts | 77° |
| 2026-04-15 14:57 | 51.15658 | -0.18266 | 215 ft | 16 kts | 77° |
| 2026-04-15 14:57 | 51.15685 | -0.18074 | 215 ft | 20 kts | 77° |
| 2026-04-15 14:57 | 51.15717 | -0.17843 | 214 ft | 24 kts | 77° |
| 2026-04-15 14:57 | 51.15749 | -0.17616 | 216 ft | 21 kts | 77° |
| 2026-04-15 14:58 | 51.15751 | -0.17545 | 214 ft | 6 kts | 114° |
| 2026-04-15 14:58 | 51.15678 | -0.17487 | 217 ft | 18 kts | 165° |
| 2026-04-15 14:58 | 51.15585 | -0.17448 | 219 ft | 5 kts | 165° |
| 2026-04-15 14:58 | 51.15525 | -0.17427 | 220 ft | 12 kts | 171° |
| 2026-04-15 14:59 | 51.15419 | -0.17395 | 217 ft | 18 kts | 169° |
| 2026-04-15 14:59 | 51.15291 | -0.17351 | 221 ft | 17 kts | 162° |
| 2026-04-15 14:59 | 51.15246 | -0.17210 | 216 ft | 17 kts | 78° |
| 2026-04-15 14:59 | 51.15276 | -0.17011 | 217 ft | 17 kts | 76° |
| 2026-04-15 15:00 | 51.15278 | -0.16850 | 220 ft | 12 kts | 133° |
| 2026-04-15 15:00 | 51.15260 | -0.16830 | 222 ft | 0 kts | 160° |
| 2026-04-15 15:00 | 51.15249 | -0.16824 | 217 ft | 5 kts | 160° |
| 2026-04-15 15:01 | 51.15211 | -0.16803 | 220 ft | 9 kts | 163° |
| 2026-04-15 15:01 | 51.15134 | -0.16822 | 219 ft | 14 kts | 216° |
| 2026-04-15 15:01 | 51.15115 | -0.16871 | 219 ft | 0 kts | 250° |
| 2026-04-15 15:02 | 51.15073 | -0.17106 | 220 ft | 63 kts | 259° |
| 2026-04-15 15:02 | 51.14912 | -0.18237 | 221 ft | 144 kts | 253° |
| 2026-04-15 15:02 | 51.14587 | -0.19948 | 585 ft | 177 kts | 250° |
| 2026-04-15 15:02 | 51.14364 | -0.21980 | 1464 ft | 173 kts | 256° |
| 2026-04-15 15:03 | 51.14180 | -0.23683 | 2770 ft | 157 kts | 253° |
| 2026-04-15 15:03 | 51.13973 | -0.25348 | 3560 ft | 153 kts | 252° |
| 2026-04-15 15:03 | 51.13757 | -0.27092 | 3994 ft | 171 kts | 257° |
| 2026-04-15 15:03 | 51.13851 | -0.29195 | 4014 ft | 209 kts | 279° |
| 2026-04-15 15:04 | 51.14599 | -0.31319 | 3997 ft | 227 kts | 306° |
| 2026-04-15 15:04 | 51.15957 | -0.32676 | 4007 ft | 247 kts | 337° |
| 2026-04-15 15:04 | 51.17719 | -0.32722 | 3997 ft | 263 kts | 13° |
| 2026-04-15 15:04 | 51.19257 | -0.31168 | 3993 ft | 268 kts | 53° |
| 2026-04-15 15:05 | 51.19973 | -0.28510 | 4007 ft | 258 kts | 90° |
| 2026-04-15 15:05 | 51.20077 | -0.25688 | 4005 ft | 256 kts | 92° |
| 2026-04-15 15:05 | 51.20231 | -0.22832 | 4009 ft | 261 kts | 90° |
| 2026-04-15 15:05 | 51.20450 | -0.19947 | 4098 ft | 264 kts | 86° |
| 2026-04-15 15:06 | 51.21188 | -0.13732 | 4525 ft | 298 kts | 82° |
| 2026-04-15 15:06 | 51.21616 | -0.10482 | 5489 ft | 299 kts | 82° |
| 2026-04-15 15:06 | 51.22046 | -0.07232 | 6475 ft | 302 kts | 82° |
| 2026-04-15 15:07 | 51.22481 | -0.03923 | 7332 ft | 307 kts | 83° |
| 2026-04-15 15:07 | 51.22921 | -0.00556 | 8138 ft | 313 kts | 82° |
| 2026-04-15 15:07 | 51.23365 | 0.02857 | 8830 ft | 317 kts | 82° |
| 2026-04-15 15:07 | 51.23817 | 0.06348 | 9398 ft | 330 kts | 82° |
| 2026-04-15 15:08 | 51.24285 | 0.09965 | 9425 ft | 332 kts | 82° |
| 2026-04-15 15:08 | 51.24774 | 0.13731 | 10094 ft | 329 kts | 82° |
| 2026-04-15 15:08 | 51.25213 | 0.17141 | 10942 ft | 330 kts | 83° |
| 2026-04-15 15:08 | 51.25671 | 0.20751 | 11858 ft | 332 kts | 83° |
| 2026-04-15 15:09 | 51.26098 | 0.24341 | 12816 ft | 335 kts | 84° |
| 2026-04-15 15:09 | 51.26526 | 0.28018 | 13707 ft | 340 kts | 84° |
| 2026-04-15 15:09 | 51.26960 | 0.31746 | 14530 ft | 344 kts | 84° |
| 2026-04-15 15:09 | 51.27651 | 0.35426 | 15262 ft | 354 kts | 63° |
| 2026-04-15 15:10 | 51.29294 | 0.38383 | 16007 ft | 364 kts | 33° |
| 2026-04-15 15:10 | 51.31621 | 0.39894 | 16844 ft | 362 kts | 4° |
| 2026-04-15 15:10 | 51.34084 | 0.39637 | 17950 ft | 353 kts | 335° |
| 2026-04-15 15:10 | 51.36147 | 0.37733 | 18649 ft | 339 kts | 308° |
| 2026-04-15 15:11 | 51.37773 | 0.35017 | 19230 ft | 342 kts | 307° |
| 2026-04-15 15:11 | 51.39670 | 0.32519 | 19482 ft | 373 kts | 319° |
| 2026-04-15 15:11 | 51.41203 | 0.31033 | 19412 ft | 398 kts | 325° |
| 2026-04-15 15:11 | 51.44755 | 0.28439 | 19407 ft | 437 kts | 333° |
| 2026-04-15 15:12 | 51.47603 | 0.26622 | 19352 ft | 442 kts | 333° |
| 2026-04-15 15:12 | 51.50455 | 0.24779 | 19320 ft | 442 kts | 332° |
| 2026-04-15 15:12 | 51.53280 | 0.22899 | 19311 ft | 440 kts | 332° |
| 2026-04-15 15:12 | 51.56101 | 0.20985 | 19310 ft | 438 kts | 332° |
| 2026-04-15 15:13 | 51.58965 | 0.19035 | 19320 ft | 438 kts | 332° |
| 2026-04-15 15:13 | 51.61657 | 0.17203 | 19317 ft | 437 kts | 331° |
| 2026-04-15 15:13 | 51.64283 | 0.14890 | 19308 ft | 424 kts | 318° |
| 2026-04-15 15:13 | 51.66425 | 0.11710 | 19307 ft | 415 kts | 301° |
| 2026-04-15 15:14 | 51.67974 | 0.07844 | 19308 ft | 411 kts | 292° |
| 2026-04-15 15:14 | 51.69047 | 0.04691 | 19301 ft | 410 kts | 292° |
| 2026-04-15 15:14 | 51.70790 | -0.00151 | 19302 ft | 411 kts | 295° |
| 2026-04-15 15:14 | 51.72321 | -0.04067 | 19226 ft | 412 kts | 295° |
| 2026-04-15 15:15 | 51.73944 | -0.07765 | 19210 ft | 419 kts | 302° |
| 2026-04-15 15:15 | 51.76007 | -0.11166 | 19210 ft | 428 kts | 311° |
| 2026-04-15 15:15 | 51.78372 | -0.14095 | 19206 ft | 435 kts | 321° |
| 2026-04-15 15:15 | 51.80858 | -0.16509 | 19211 ft | 438 kts | 323° |
| 2026-04-15 15:16 | 51.83505 | -0.18961 | 19294 ft | 440 kts | 324° |
| 2026-04-15 15:16 | 51.86174 | -0.21420 | 19292 ft | 441 kts | 324° |
| 2026-04-15 15:16 | 51.88841 | -0.23901 | 19290 ft | 442 kts | 324° |
| 2026-04-15 15:16 | 51.91510 | -0.26418 | 19878 ft | 446 kts | 323° |
| 2026-04-15 15:17 | 51.94157 | -0.28936 | 20624 ft | 450 kts | 323° |
| 2026-04-15 15:17 | 51.96873 | -0.31535 | 21321 ft | 457 kts | 323° |
| 2026-04-15 15:17 | 51.99635 | -0.34186 | 21982 ft | 464 kts | 323° |
| 2026-04-15 15:17 | 52.01460 | -0.35939 | 22437 ft | 469 kts | 322° |
| 2026-04-15 15:18 | 52.05254 | -0.39582 | 23342 ft | 478 kts | 323° |
| 2026-04-15 15:18 | 52.08115 | -0.42334 | 23901 ft | 485 kts | 323° |
| 2026-04-15 15:18 | 52.11068 | -0.45184 | 24481 ft | 490 kts | 322° |
| 2026-04-15 15:18 | 52.14007 | -0.48035 | 25090 ft | 494 kts | 322° |
| 2026-04-15 15:19 | 52.15972 | -0.49946 | 25499 ft | 496 kts | 322° |
| 2026-04-15 15:19 | 52.19917 | -0.53785 | 26276 ft | 503 kts | 322° |
| 2026-04-15 15:19 | 52.22934 | -0.56725 | 26814 ft | 507 kts | 323° |
| 2026-04-15 15:19 | 52.26015 | -0.59731 | 27367 ft | 512 kts | 323° |
| 2026-04-15 15:20 | 52.29053 | -0.62699 | 27898 ft | 517 kts | 323° |
| 2026-04-15 15:20 | 52.31150 | -0.64750 | 28199 ft | 522 kts | 323° |
| 2026-04-15 15:20 | 52.35291 | -0.68805 | 28854 ft | 529 kts | 323° |
| 2026-04-15 15:20 | 52.38462 | -0.71917 | 29346 ft | 533 kts | 323° |
| 2026-04-15 15:21 | 52.41655 | -0.75059 | 29861 ft | 537 kts | 323° |
| 2026-04-15 15:21 | 52.44873 | -0.78230 | 30304 ft | 541 kts | 323° |
| 2026-04-15 15:21 | 52.48107 | -0.81421 | 30712 ft | 543 kts | 323° |
| 2026-04-15 15:21 | 52.51359 | -0.84635 | 31137 ft | 545 kts | 323° |
| 2026-04-15 15:22 | 52.54613 | -0.87857 | 31517 ft | 548 kts | 323° |
| 2026-04-15 15:22 | 52.57877 | -0.91094 | 31897 ft | 550 kts | 323° |
| 2026-04-15 15:22 | 52.64399 | -0.97569 | 31920 ft | 551 kts | 323° |
| 2026-04-15 15:23 | 52.70719 | -1.03834 | 31949 ft | 546 kts | 322° |
| 2026-04-15 15:23 | 52.76794 | -1.11148 | 31927 ft | 534 kts | 310° |
| 2026-04-15 15:24 | 52.82156 | -1.19612 | 31921 ft | 534 kts | 308° |
| 2026-04-15 15:24 | 52.87462 | -1.28136 | 31910 ft | 536 kts | 309° |
| 2026-04-15 15:25 | 52.92853 | -1.36681 | 31916 ft | 537 kts | 309° |
| 2026-04-15 15:25 | 52.97889 | -1.44636 | 31908 ft | 538 kts | 309° |
| 2026-04-15 15:26 | 53.03229 | -1.53110 | 31996 ft | 539 kts | 309° |
| 2026-04-15 15:26 | 53.08711 | -1.61851 | 31914 ft | 540 kts | 309° |
| 2026-04-15 15:27 | 53.14105 | -1.70522 | 31891 ft | 539 kts | 309° |
| 2026-04-15 15:27 | 53.19490 | -1.79216 | 31881 ft | 538 kts | 309° |
| 2026-04-15 15:28 | 53.25209 | -1.87362 | 31885 ft | 545 kts | 318° |
| 2026-04-15 15:28 | 53.31730 | -1.93976 | 31862 ft | 552 kts | 326° |
| 2026-04-15 15:29 | 53.38430 | -2.00128 | 31864 ft | 554 kts | 326° |
| 2026-04-15 15:29 | 53.44894 | -2.06197 | 31894 ft | 533 kts | 325° |
| 2026-04-15 15:30 | 53.48074 | -2.09233 | 31865 ft | 518 kts | 325° |
| 2026-04-15 15:30 | 53.51177 | -2.12215 | 31856 ft | 513 kts | 325° |
| 2026-04-15 15:30 | 53.57214 | -2.18492 | 31844 ft | 503 kts | 313° |
| 2026-04-15 15:31 | 53.59619 | -2.22593 | 31863 ft | 491 kts | 301° |
| 2026-04-15 15:31 | 53.61552 | -2.27286 | 31861 ft | 484 kts | 291° |
| 2026-04-15 15:31 | 53.64104 | -2.37652 | 31848 ft | 474 kts | 281° |
| 2026-04-15 15:32 | 53.66375 | -2.48021 | 31834 ft | 474 kts | 281° |
| 2026-04-15 15:32 | 53.68697 | -2.58411 | 31834 ft | 474 kts | 282° |
| 2026-04-15 15:33 | 53.71064 | -2.68895 | 31855 ft | 474 kts | 283° |
| 2026-04-15 15:33 | 53.73407 | -2.79289 | 31823 ft | 475 kts | 282° |
| 2026-04-15 15:34 | 53.75743 | -2.89709 | 31832 ft | 474 kts | 282° |
| 2026-04-15 15:34 | 53.78056 | -3.00086 | 31830 ft | 474 kts | 282° |
| 2026-04-15 15:35 | 53.80273 | -3.10093 | 31834 ft | 474 kts | 282° |
| 2026-04-15 15:35 | 53.82578 | -3.20541 | 31844 ft | 474 kts | 283° |
| 2026-04-15 15:36 | 53.84837 | -3.30781 | 31806 ft | 450 kts | 282° |
| 2026-04-15 15:36 | 53.85911 | -3.35674 | 31617 ft | 440 kts | 282° |
| 2026-04-15 15:36 | 53.86965 | -3.40522 | 31191 ft | 437 kts | 282° |
| 2026-04-15 15:37 | 53.88009 | -3.45333 | 30774 ft | 433 kts | 282° |
| 2026-04-15 15:37 | 53.88716 | -3.48596 | 30500 ft | 437 kts | 281° |
| 2026-04-15 15:37 | 53.89769 | -3.53502 | 30090 ft | 448 kts | 281° |
| 2026-04-15 15:37 | 53.90845 | -3.58532 | 29596 ft | 460 kts | 281° |
| 2026-04-15 15:38 | 53.91937 | -3.63627 | 29061 ft | 470 kts | 282° |
| 2026-04-15 15:38 | 53.93066 | -3.68884 | 28617 ft | 479 kts | 283° |
| 2026-04-15 15:38 | 53.94215 | -3.74244 | 28084 ft | 487 kts | 283° |
| 2026-04-15 15:38 | 53.95359 | -3.79705 | 27532 ft | 493 kts | 281° |
| 2026-04-15 15:39 | 53.96286 | -3.85320 | 27018 ft | 494 kts | 275° |
| 2026-04-15 15:39 | 53.96869 | -3.91129 | 26488 ft | 494 kts | 271° |
| 2026-04-15 15:39 | 53.97176 | -3.94974 | 26140 ft | 497 kts | 270° |
| 2026-04-15 15:39 | 53.97750 | -4.02144 | 25686 ft | 498 kts | 271° |
| 2026-04-15 15:40 | 53.98249 | -4.07937 | 25202 ft | 492 kts | 271° |
| 2026-04-15 15:40 | 53.98793 | -4.13655 | 24518 ft | 489 kts | 275° |
| 2026-04-15 15:40 | 53.99725 | -4.19213 | 23905 ft | 490 kts | 284° |
| 2026-04-15 15:40 | 54.01064 | -4.24462 | 23599 ft | 482 kts | 291° |
| 2026-04-15 15:41 | 54.02719 | -4.29348 | 23234 ft | 474 kts | 299° |
| 2026-04-15 15:41 | 54.04650 | -4.33879 | 22498 ft | 471 kts | 302° |
| 2026-04-15 15:41 | 54.06544 | -4.38210 | 21957 ft | 438 kts | 301° |
| 2026-04-15 15:41 | 54.08262 | -4.42243 | 21538 ft | 407 kts | 300° |
| 2026-04-15 15:42 | 54.09849 | -4.46060 | 21148 ft | 380 kts | 299° |
| 2026-04-15 15:42 | 54.11306 | -4.49626 | 20780 ft | 356 kts | 298° |
| 2026-04-15 15:42 | 54.12675 | -4.52994 | 20435 ft | 336 kts | 298° |
| 2026-04-15 15:42 | 54.13979 | -4.56201 | 20112 ft | 320 kts | 298° |
| 2026-04-15 15:43 | 54.15254 | -4.59346 | 19799 ft | 329 kts | 298° |
| 2026-04-15 15:43 | 54.16604 | -4.62701 | 19471 ft | 357 kts | 298° |
| 2026-04-15 15:43 | 54.18042 | -4.66247 | 19063 ft | 365 kts | 299° |
| 2026-04-15 15:43 | 54.19486 | -4.69770 | 18664 ft | 359 kts | 299° |
| 2026-04-15 15:44 | 54.20904 | -4.73219 | 18286 ft | 349 kts | 299° |
| 2026-04-15 15:44 | 54.22272 | -4.76552 | 17899 ft | 337 kts | 298° |
| 2026-04-15 15:44 | 54.23591 | -4.79777 | 17543 ft | 326 kts | 299° |
| 2026-04-15 15:44 | 54.24854 | -4.82875 | 17174 ft | 317 kts | 299° |
| 2026-04-15 15:45 | 54.26103 | -4.85951 | 16859 ft | 313 kts | 298° |
| 2026-04-15 15:45 | 54.27350 | -4.89037 | 16519 ft | 318 kts | 298° |
| 2026-04-15 15:45 | 54.28630 | -4.92218 | 16172 ft | 332 kts | 299° |
| 2026-04-15 15:45 | 54.29926 | -4.95439 | 15823 ft | 340 kts | 299° |
| 2026-04-15 15:46 | 54.31252 | -4.98720 | 15456 ft | 337 kts | 299° |
| 2026-04-15 15:46 | 54.32375 | -5.01493 | 15127 ft | 330 kts | 299° |
| 2026-04-15 15:46 | 54.33364 | -5.03938 | 14846 ft | 323 kts | 298° |
| 2026-04-15 15:46 | 54.34631 | -5.07071 | 14497 ft | 310 kts | 298° |
| 2026-04-15 15:47 | 54.35834 | -5.10054 | 14170 ft | 300 kts | 298° |
| 2026-04-15 15:47 | 54.37000 | -5.12954 | 13857 ft | 293 kts | 297° |
| 2026-04-15 15:47 | 54.38149 | -5.15827 | 13561 ft | 292 kts | 297° |
| 2026-04-15 15:47 | 54.39312 | -5.18746 | 13252 ft | 301 kts | 297° |
| 2026-04-15 15:48 | 54.40526 | -5.21801 | 12919 ft | 319 kts | 298° |
| 2026-04-15 15:48 | 54.41792 | -5.24969 | 12545 ft | 322 kts | 298° |
| 2026-04-15 15:48 | 54.43049 | -5.28101 | 12174 ft | 315 kts | 298° |
| 2026-04-15 15:48 | 54.44270 | -5.31149 | 11822 ft | 303 kts | 298° |
| 2026-04-15 15:49 | 54.45461 | -5.34037 | 11502 ft | 292 kts | 303° |
| 2026-04-15 15:49 | 54.46820 | -5.36573 | 11195 ft | 286 kts | 309° |
| 2026-04-15 15:49 | 54.48224 | -5.38965 | 10912 ft | 282 kts | 309° |
| 2026-04-15 15:49 | 54.49629 | -5.41397 | 10645 ft | 291 kts | 309° |
| 2026-04-15 15:50 | 54.51081 | -5.43954 | 10356 ft | 308 kts | 308° |
| 2026-04-15 15:50 | 54.52473 | -5.46802 | 10015 ft | 310 kts | 298° |
| 2026-04-15 15:50 | 54.53230 | -5.48860 | 9923 ft | 304 kts | 295° |
| 2026-04-15 15:50 | 54.54583 | -5.52969 | 9722 ft | 290 kts | 293° |
| 2026-04-15 15:51 | 54.55548 | -5.55977 | 9451 ft | 283 kts | 293° |
| 2026-04-15 15:51 | 54.56175 | -5.57926 | 9244 ft | 280 kts | 293° |
| 2026-04-15 15:51 | 54.57435 | -5.61804 | 8832 ft | 274 kts | 293° |
| 2026-04-15 15:51 | 54.58365 | -5.64639 | 8545 ft | 269 kts | 293° |
| 2026-04-15 15:52 | 54.59280 | -5.67417 | 8236 ft | 264 kts | 293° |
| 2026-04-15 15:52 | 54.60175 | -5.70123 | 7953 ft | 259 kts | 293° |
| 2026-04-15 15:52 | 54.61058 | -5.72791 | 7673 ft | 256 kts | 293° |
| 2026-04-15 15:52 | 54.61943 | -5.75464 | 7421 ft | 257 kts | 293° |
| 2026-04-15 15:53 | 54.62838 | -5.78179 | 7156 ft | 264 kts | 293° |
| 2026-04-15 15:53 | 54.63756 | -5.80963 | 6873 ft | 269 kts | 293° |
| 2026-04-15 15:53 | 54.64683 | -5.83765 | 6586 ft | 269 kts | 293° |
| 2026-04-15 15:53 | 54.65611 | -5.86562 | 6267 ft | 266 kts | 293° |
| 2026-04-15 15:54 | 54.66523 | -5.89312 | 6004 ft | 261 kts | 293° |
| 2026-04-15 15:54 | 54.67423 | -5.92035 | 5669 ft | 263 kts | 293° |
| 2026-04-15 15:54 | 54.68319 | -5.94744 | 5676 ft | 260 kts | 293° |
| 2026-04-15 15:54 | 54.69228 | -5.97507 | 5512 ft | 267 kts | 293° |
| 2026-04-15 15:55 | 54.70092 | -6.00146 | 5190 ft | 271 kts | 293° |
| 2026-04-15 15:55 | 54.70951 | -6.02754 | 4905 ft | 267 kts | 293° |
| 2026-04-15 15:55 | 54.71861 | -6.05514 | 4616 ft | 261 kts | 293° |
| 2026-04-15 15:55 | 54.72745 | -6.08200 | 4331 ft | 256 kts | 293° |
| 2026-04-15 15:56 | 54.73622 | -6.10878 | 4040 ft | 255 kts | 293° |
| 2026-04-15 15:56 | 54.74440 | -6.13373 | 3863 ft | 253 kts | 292° |
| 2026-04-15 15:56 | 54.75283 | -6.15940 | 3716 ft | 242 kts | 292° |
| 2026-04-15 15:56 | 54.76095 | -6.18414 | 3628 ft | 230 kts | 291° |
| 2026-04-15 15:57 | 54.76862 | -6.20753 | 3548 ft | 216 kts | 291° |
| 2026-04-15 15:57 | 54.77792 | -6.22697 | 3349 ft | 213 kts | 320° |
| 2026-04-15 15:57 | 54.79163 | -6.23548 | 3202 ft | 204 kts | 342° |
| 2026-04-15 15:57 | 54.80548 | -6.24099 | 3187 ft | 206 kts | 341° |
| 2026-04-15 15:58 | 54.81945 | -6.24661 | 3027 ft | 207 kts | 343° |
| 2026-04-15 15:58 | 54.83353 | -6.25120 | 2780 ft | 203 kts | 341° |
| 2026-04-15 15:58 | 54.84503 | -6.26196 | 2555 ft | 176 kts | 298° |
| 2026-04-15 15:58 | 54.84878 | -6.28078 | 2563 ft | 163 kts | 256° |
| 2026-04-15 15:59 | 54.84405 | -6.29743 | 2515 ft | 154 kts | 216° |
| 2026-04-15 15:59 | 54.83456 | -6.30512 | 2527 ft | 150 kts | 199° |
| 2026-04-15 15:59 | 54.82478 | -6.31084 | 2498 ft | 147 kts | 197° |
| 2026-04-15 15:59 | 54.81471 | -6.31124 | 2533 ft | 147 kts | 172° |
| 2026-04-15 16:00 | 54.80483 | -6.30757 | 2502 ft | 143 kts | 173° |
| 2026-04-15 16:00 | 54.79517 | -6.30429 | 2518 ft | 140 kts | 173° |
| 2026-04-15 16:00 | 54.78565 | -6.30012 | 2528 ft | 143 kts | 170° |
| 2026-04-15 16:00 | 54.77608 | -6.29513 | 2534 ft | 142 kts | 169° |
| 2026-04-15 16:01 | 54.76702 | -6.29009 | 2530 ft | 134 kts | 168° |
| 2026-04-15 16:01 | 54.75818 | -6.28512 | 2332 ft | 131 kts | 168° |
| 2026-04-15 16:01 | 54.74974 | -6.28036 | 2181 ft | 126 kts | 169° |
| 2026-04-15 16:01 | 54.74147 | -6.27572 | 2004 ft | 125 kts | 169° |
| 2026-04-15 16:02 | 54.73327 | -6.27107 | 1829 ft | 123 kts | 169° |
| 2026-04-15 16:02 | 54.72509 | -6.26646 | 1672 ft | 126 kts | 169° |
| 2026-04-15 16:02 | 54.71672 | -6.26174 | 1497 ft | 126 kts | 169° |
| 2026-04-15 16:02 | 54.70847 | -6.25709 | 1315 ft | 124 kts | 167° |
| 2026-04-15 16:03 | 54.70026 | -6.25244 | 1122 ft | 131 kts | 166° |
| 2026-04-15 16:03 | 54.69137 | -6.24766 | 1014 ft | 134 kts | 166° |
| 2026-04-15 16:03 | 54.68237 | -6.24262 | 764 ft | 139 kts | 164° |
| 2026-04-15 16:03 | 54.67334 | -6.23730 | 500 ft | 131 kts | 163° |
| 2026-04-15 16:04 | 54.66473 | -6.23231 | 378 ft | 124 kts | 165° |
| 2026-04-15 16:04 | 54.65686 | -6.22799 | 225 ft | 110 kts | 165° |
| 2026-04-15 16:04 | 54.65128 | -6.22507 | 239 ft | 47 kts | 161° |
| 2026-04-15 16:04 | 54.65076 | -6.22313 | 239 ft | 16 kts | 52° |
| 2026-04-15 16:05 | 54.65144 | -6.22239 | 237 ft | 0 kts | 33° |
| 2026-04-15 16:05 | 54.65179 | -6.22199 | 242 ft | 14 kts | 33° |
| 2026-04-15 16:05 | 54.65233 | -6.22135 | 241 ft | 9 kts | 36° |
| 2026-04-15 16:05 | 54.65287 | -6.22066 | 237 ft | 10 kts | 36° |
| 2026-04-15 16:06 | 54.65345 | -6.21993 | 240 ft | 10 kts | 37° |
| 2026-04-15 16:06 | 54.65406 | -6.21920 | 240 ft | 12 kts | 30° |
| 2026-04-15 16:06 | 54.65495 | -6.21847 | 237 ft | 16 kts | 25° |
| 2026-04-15 16:06 | 54.65586 | -6.21730 | 239 ft | 17 kts | 50° |
| 2026-04-15 16:07 | 54.65654 | -6.21547 | 241 ft | 18 kts | 60° |
| 2026-04-15 16:07 | 54.65702 | -6.21375 | 244 ft | 16 kts | 70° |
| 2026-04-15 16:07 | 54.65785 | -6.20996 | 249 ft | 18 kts | 57° |
| 2026-04-15 16:08 | 54.65884 | -6.20941 | 249 ft | 17 kts | 347° |
| 2026-04-15 16:08 | 54.65999 | -6.21036 | 250 ft | 19 kts | 327° |
| 2026-04-15 16:08 | 54.66065 | -6.21189 | 249 ft | 10 kts | 314° |
| 2026-04-15 16:08 | 54.66085 | -6.21260 | 248 ft | 6 kts | 273° |
| 2026-04-15 16:09 | 54.66079 | -6.21295 | 247 ft | 1 kts | 251° |
| 2026-04-15 16:09 | 54.66077 | -6.21304 | 247 ft | 0 kts | 251° |